CYZV

Sept-Îles Airport

Sept-Îles, Quebec, Canada
TAF CYZV 211739Z 2118/2218 01020G30KT 11/2SM -SN BLSN VV012 TEMPO 2118/2124 3SM -SN OVC020 FM220000 01015G25KT 2SM -SN OVC020 PROB40 2200/2212 1SM -SN VV010 FM221200 35020G35KT P6SM BKN100 FM221500 35020G35KT P6SM SCT200 RMK NXT FCST BY 220000Z
Issued Valid From Valid To
Jan-21 @ 17:39 UTC
(2 hours ago)
Jan-21 @ 18:00 UTC
(2 hours ago)
Jan-22 @ 18:00 UTC
(in 22 hours)
Jan-21 @ 18:00 to Jan-22 @ 00:00
TAF CYZV 211739Z 2118/2218 01020G30KT 11/2SM -SN BLSN VV012
Wind Visibility Clouds Conditions
10° at 20 knots
 Gusting to 30 knots
1 1/2 miles
  • Vertical visibility at 1,200' AGL
  • Light Snow
  • Blowing
  • Snow
Temporary Jan-21 @ 18:00 to Jan-22 @ 00:00
TEMPO 2118/2124 3SM -SN OVC020
Visibility Clouds Conditions
3 miles
  • Overcast at 2,000' AGL
  • Light Snow
Probable  (Probability 40%) Jan-22 @ 00:00 to Jan-22 @ 12:00
PROB40 2200/2212 1SM -SN VV010
Visibility Clouds Conditions
1 miles
  • Vertical visibility at 1,000' AGL
  • Light Snow
From Jan-22 @ 00:00 to Jan-22 @ 12:00
FM220000 01015G25KT 2SM -SN OVC020
Wind Visibility Clouds Conditions
10° at 15 knots
 Gusting to 25 knots
2 miles
  • Overcast at 2,000' AGL
  • Light Snow
From Jan-22 @ 12:00 to Jan-22 @ 15:00
FM221200 35020G35KT P6SM BKN100
Wind Visibility Clouds
350° at 20 knots
 Gusting to 35 knots
Greater than 6 miles
  • Broken at 10,000' AGL
From Jan-22 @ 15:00 to Jan-22 @ 18:00
FM221500 35020G35KT P6SM SCT200 RMK NXT FCST BY 220000Z
Wind Visibility Clouds
350° at 20 knots
 Gusting to 35 knots
Greater than 6 miles
  • Scattered at 20,000' AGL
TAF CYZV 211739Z 2118/2218 01020G30KT 11/2SM -SN BLSN VV012 TEMPO 2118/2124 3SM -SN OVC020 FM220000 01015G25KT 2SM -SN OVC020 PROB40 2200/2212 1SM -SN VV010 FM221200 35020G35KT P6SM BKN100 FM221500 35020G35KT P6SM SCT200 RMK NXT FCST BY 220000Z
Issued Jan-21 @ 17:39 UTC
(2 hours ago)
Valid From Jan-21 @ 18:00 UTC
(2 hours ago)
Valid To Jan-22 @ 18:00 UTC
(in 22 hours)
Jan-21 @ 18:00 - Jan-22 @ 00:00
Wind Visibility
10° at 20 knots
 Gusting to 30 knots
1 1/2 miles
Clouds
  • Vertical visibility at 1,200' AGL
Conditions
  • Light Snow
  • Blowing
  • Snow
Temporary Jan-21 @ 18:00 - Jan-22 @ 00:00
Clouds
  • Overcast at 2,000' AGL
Conditions
  • Light Snow
Probability 40% Probable Jan-22 @ 00:00 - Jan-22 @ 12:00
Clouds
  • Vertical visibility at 1,000' AGL
Conditions
  • Light Snow
From Jan-22 @ 00:00 - Jan-22 @ 12:00
Wind Visibility
10° at 15 knots
 Gusting to 25 knots
2 miles
Clouds
  • Overcast at 2,000' AGL
Conditions
  • Light Snow
From Jan-22 @ 12:00 - Jan-22 @ 15:00
Wind Visibility
350° at 20 knots
 Gusting to 35 knots
Greater than 6 miles
Clouds
  • Broken at 10,000' AGL
From Jan-22 @ 15:00 - Jan-22 @ 18:00
Wind Visibility
350° at 20 knots
 Gusting to 35 knots
Greater than 6 miles
Clouds
  • Scattered at 20,000' AGL